^^
Station Historical Data
Daily Summary for April 9, 2017 Units:  Both    English   Metric
« Previous Day
Next Day »
Daily Weekly Monthly Yearly Custom
  High: Low: Average:
Temperature: 79.0 °F /  26.1 °C 58.6 °F /  14.8 °C 63.9 °F /  17.7 °C
Dew Point: 60.6 °F /  15.9 °C 53.8 °F /  12.1 °C 57.1 °F /  13.9 °C
Humidity: 94% 47% 80%
Wind Speed: 8.9mph /  14.3km/h - 1mph /  1.6km/h
Wind Gust: 14.0mph /  22.5km/h - -
Wind- - SSE
Pressure: 30.40 in /  1029.3 hPa 30.27 in /  1024.9 hPa -
Precipitation: 0.26 in /  6.6 mm    
Historical Graphs
 
 
Tabular Data for April 9, 2017
Time Temperature Dew Point Pressure Wind Wind Speed Wind Gust Humidity Rainfall Rate (Hourly) solar Conditions
00:01 60.1 °F /  15.6 °C 56.1 °F /  13.4 °C 30.33in /  1027hPa Calm     87% 0.00in /  0mm 0.0 W/m2
00:08 60.3 °F /  15.7 °C 56.3 °F /  13.5 °C 30.33in /  1027hPa Calm   2.0mph /  3.2km/h 87% 0.00in /  0mm 0.0 W/m2
00:14 60.3 °F /  15.7 °C 56.3 °F /  13.5 °C 30.33in /  1027hPa Calm     87% 0.00in /  0mm 0.0 W/m2
00:20 60.3 °F /  15.7 °C 56.3 °F /  13.5 °C 30.33in /  1027hPa Calm     87% 0.00in /  0mm 0.0 W/m2
00:26 60.3 °F /  15.7 °C 56.3 °F /  13.5 °C 30.33in /  1027hPa Calm   1.0mph /  1.6km/h 87% 0.00in /  0mm 0.0 W/m2
00:32 60.3 °F /  15.7 °C 56.3 °F /  13.5 °C 30.33in /  1027hPa ENE 2.9mph /  4.7km/h 3.0mph /  4.8km/h 87% 0.00in /  0mm 0.0 W/m2
00:38 60.1 °F /  15.6 °C 55.9 °F /  13.3 °C 30.33in /  1027hPa Calm   7.0mph /  11.3km/h 86% 0.00in /  0mm 0.0 W/m2
00:44 60.3 °F /  15.7 °C 56.1 °F /  13.4 °C 30.33in /  1027hPa ESE 4.9mph /  7.9km/h 7.0mph /  11.3km/h 86% 0.00in /  0mm 0.0 W/m2
00:50 60.3 °F /  15.7 °C 56.1 °F /  13.4 °C 30.32in /  1026.6hPa NNE 2.9mph /  4.7km/h 9.0mph /  14.5km/h 86% 0.00in /  0mm 0.0 W/m2
00:56 60.4 °F /  15.8 °C 56.3 °F /  13.5 °C 30.32in /  1026.6hPa SE 2.0mph /  3.2km/h 6.0mph /  9.7km/h 86% 0.00in /  0mm 0.0 W/m2
01:02 60.4 °F /  15.8 °C 55.9 °F /  13.3 °C 30.32in /  1026.6hPa East 6.9mph /  11.1km/h 7.0mph /  11.3km/h 85% 0.00in /  0mm 0.0 W/m2
01:08 60.4 °F /  15.8 °C 55.9 °F /  13.3 °C 30.31in /  1026.3hPa NE 2.9mph /  4.7km/h 7.0mph /  11.3km/h 85% 0.00in /  0mm 0.0 W/m2
01:14 60.4 °F /  15.8 °C 55.9 °F /  13.3 °C 30.31in /  1026.3hPa ENE 4.0mph /  6.4km/h 7.0mph /  11.3km/h 85% 0.00in /  0mm 0.0 W/m2
01:20 60.4 °F /  15.8 °C 55.9 °F /  13.3 °C 30.31in /  1026.3hPa Calm   8.0mph /  12.9km/h 85% 0.00in /  0mm 0.0 W/m2
01:26 60.4 °F /  15.8 °C 55.9 °F /  13.3 °C 30.31in /  1026.3hPa Calm   5.0mph /  8km/h 85% 0.00in /  0mm 0.0 W/m2
01:32 60.4 °F /  15.8 °C 55.9 °F /  13.3 °C 30.32in /  1026.6hPa NE 0.9mph /  1.4km/h 7.0mph /  11.3km/h 85% 0.00in /  0mm 0.0 W/m2
01:38 60.3 °F /  15.7 °C 55.4 °F /  13 °C 30.31in /  1026.3hPa Calm   5.0mph /  8km/h 84% 0.00in /  0mm 0.0 W/m2
01:44 60.3 °F /  15.7 °C 55.4 °F /  13 °C 30.31in /  1026.3hPa Calm   1.0mph /  1.6km/h 84% 0.00in /  0mm 0.0 W/m2
01:50 60.3 °F /  15.7 °C 55.8 °F /  13.2 °C 30.31in /  1026.3hPa Calm   1.0mph /  1.6km/h 85% 0.00in /  0mm 0.0 W/m2
01:56 60.1 °F /  15.6 °C 55.6 °F /  13.1 °C 30.31in /  1026.3hPa Calm     85% 0.00in /  0mm 0.0 W/m2
02:03 59.9 °F /  15.5 °C 55.4 °F /  13 °C 30.31in /  1026.3hPa Calm     85% 0.00in /  0mm 0.0 W/m2
02:09 59.7 °F /  15.4 °C 55.2 °F /  12.9 °C 30.31in /  1026.3hPa Calm     85% 0.00in /  0mm 0.0 W/m2
02:17 59.5 °F /  15.3 °C 55.4 °F /  13 °C 30.31in /  1026.3hPa Calm     86% 0.00in /  0mm 0.0 W/m2
02:23 59.4 °F /  15.2 °C 55.2 °F /  12.9 °C 30.31in /  1026.3hPa Calm     86% 0.00in /  0mm 0.0 W/m2
02:29 59.4 °F /  15.2 °C 55.2 °F /  12.9 °C 30.31in /  1026.3hPa Calm     86% 0.00in /  0mm 0.0 W/m2
02:35 59.2 °F /  15.1 °C 55.0 °F /  12.8 °C 30.30in /  1026hPa Calm   1.0mph /  1.6km/h 86% 0.00in /  0mm 0.0 W/m2
02:41 59.0 °F /  15 °C 54.9 °F /  12.7 °C 30.30in /  1026hPa Calm   2.0mph /  3.2km/h 86% 0.00in /  0mm 0.0 W/m2
02:47 58.8 °F /  14.9 °C 54.7 °F /  12.6 °C 30.30in /  1026hPa Calm   1.0mph /  1.6km/h 86% 0.00in /  0mm 0.0 W/m2
02:54 58.8 °F /  14.9 °C 54.7 °F /  12.6 °C 30.30in /  1026hPa Calm   2.0mph /  3.2km/h 86% 0.00in /  0mm 0.0 W/m2
03:00 58.8 °F /  14.9 °C 54.7 °F /  12.6 °C 30.30in /  1026hPa Calm     86% 0.00in /  0mm 0.0 W/m2
03:06 58.8 °F /  14.9 °C 54.7 °F /  12.6 °C 30.30in /  1026hPa East 0.9mph /  1.4km/h 1.0mph /  1.6km/h 86% 0.00in /  0mm 0.0 W/m2
03:12 58.8 °F /  14.9 °C 55.0 °F /  12.8 °C 30.30in /  1026hPa Calm   1.0mph /  1.6km/h 87% 0.00in /  0mm 0.0 W/m2
03:18 58.6 °F /  14.8 °C 54.9 °F /  12.7 °C 30.30in /  1026hPa SE 0.9mph /  1.4km/h 2.0mph /  3.2km/h 87% 0.00in /  0mm 0.0 W/m2
03:24 58.8 °F /  14.9 °C 54.7 °F /  12.6 °C 30.30in /  1026hPa Calm     86% 0.00in /  0mm 0.0 W/m2
03:30 58.8 °F /  14.9 °C 54.7 °F /  12.6 °C 30.30in /  1026hPa Calm   1.0mph /  1.6km/h 86% 0.00in /  0mm 0.0 W/m2
03:36 58.8 °F /  14.9 °C 54.7 °F /  12.6 °C 30.31in /  1026.3hPa Calm   1.0mph /  1.6km/h 86% 0.00in /  0mm 0.0 W/m2
03:42 59.0 °F /  15 °C 54.9 °F /  12.7 °C 30.30in /  1026hPa Calm     86% 0.00in /  0mm 0.0 W/m2
03:49 59.2 °F /  15.1 °C 54.7 °F /  12.6 °C 30.31in /  1026.3hPa Calm     85% 0.00in /  0mm 0.0 W/m2
04:01 59.2 °F /  15.1 °C 55.0 °F /  12.8 °C 30.31in /  1026.3hPa Calm     86% 0.00in /  0mm 0.0 W/m2
04:07 59.2 °F /  15.1 °C 55.0 °F /  12.8 °C 30.31in /  1026.3hPa Calm     86% 0.00in /  0mm 0.0 W/m2
04:13 59.2 °F /  15.1 °C 55.0 °F /  12.8 °C 30.31in /  1026.3hPa Calm   2.0mph /  3.2km/h 86% 0.00in /  0mm 0.0 W/m2
04:19 59.0 °F /  15 °C 54.9 °F /  12.7 °C 30.31in /  1026.3hPa Calm   1.0mph /  1.6km/h 86% 0.00in /  0mm 0.0 W/m2
04:25 59.0 °F /  15 °C 54.9 °F /  12.7 °C 30.31in /  1026.3hPa Calm   1.0mph /  1.6km/h 86% 0.00in /  0mm 0.0 W/m2
04:31 58.8 °F /  14.9 °C 54.7 °F /  12.6 °C 30.31in /  1026.3hPa Calm     86% 0.00in /  0mm 0.0 W/m2
04:37 58.8 °F /  14.9 °C 54.7 °F /  12.6 °C 30.31in /  1026.3hPa Calm   1.0mph /  1.6km/h 86% 0.00in /  0mm 0.0 W/m2
04:43 58.8 °F /  14.9 °C 54.7 °F /  12.6 °C 30.31in /  1026.3hPa East 0.9mph /  1.4km/h 1.0mph /  1.6km/h 86% 0.00in /  0mm 0.0 W/m2
04:49 58.8 °F /  14.9 °C 54.7 °F /  12.6 °C 30.32in /  1026.6hPa Calm   1.0mph /  1.6km/h 86% 0.00in /  0mm 0.0 W/m2
04:55 58.8 °F /  14.9 °C 54.3 °F /  12.4 °C 30.32in /  1026.6hPa Calm   2.0mph /  3.2km/h 85% 0.00in /  0mm 0.0 W/m2
05:02 58.8 °F /  14.9 °C 54.3 °F /  12.4 °C 30.32in /  1026.6hPa Calm   1.0mph /  1.6km/h 85% 0.00in /  0mm 0.0 W/m2
05:08 58.8 °F /  14.9 °C 54.3 °F /  12.4 °C 30.33in /  1027hPa Calm   3.0mph /  4.8km/h 85% 0.00in /  0mm 0.0 W/m2
05:14 59.0 °F /  15 °C 54.5 °F /  12.5 °C 30.33in /  1027hPa Calm   2.0mph /  3.2km/h 85% 0.00in /  0mm 0.0 W/m2
05:20 59.2 °F /  15.1 °C 54.3 °F /  12.4 °C 30.33in /  1027hPa Calm   1.0mph /  1.6km/h 84% 0.00in /  0mm 0.0 W/m2
05:26 59.2 °F /  15.1 °C 54.3 °F /  12.4 °C 30.33in /  1027hPa Calm   1.0mph /  1.6km/h 84% 0.00in /  0mm 0.0 W/m2
05:32 59.4 °F /  15.2 °C 54.1 °F /  12.3 °C 30.33in /  1027hPa Calm   2.0mph /  3.2km/h 83% 0.01in /  0.25mm 0.0 W/m2
05:38 59.4 °F /  15.2 °C 54.1 °F /  12.3 °C 30.33in /  1027hPa Calm   2.0mph /  3.2km/h 83% 0.01in /  0.25mm 0.0 W/m2
05:44 59.4 °F /  15.2 °C 54.1 °F /  12.3 °C 30.34in /  1027.3hPa Calm   1.0mph /  1.6km/h 83% 0.01in /  0.25mm 0.0 W/m2
05:50 59.4 °F /  15.2 °C 53.8 °F /  12.1 °C 30.34in /  1027.3hPa Calm     82% 0.01in /  0.25mm 0.0 W/m2
05:56 59.4 °F /  15.2 °C 54.1 °F /  12.3 °C 30.34in /  1027.3hPa Calm     83% 0.01in /  0.25mm 0.0 W/m2
06:03 59.4 °F /  15.2 °C 54.1 °F /  12.3 °C 30.34in /  1027.3hPa Calm     83% 0.01in /  0.25mm 0.0 W/m2
06:08 59.2 °F /  15.1 °C 54.0 °F /  12.2 °C 30.35in /  1027.7hPa Calm     83% 0.01in /  0.25mm 0.0 W/m2
06:15 59.2 °F /  15.1 °C 54.3 °F /  12.4 °C 30.35in /  1027.7hPa Calm     84% 0.01in /  0.25mm 7.0 W/m2
06:21 58.8 °F /  14.9 °C 54.0 °F /  12.2 °C 30.35in /  1027.7hPa Calm     84% 0.01in /  0.25mm 9.0 W/m2
06:27 58.8 °F /  14.9 °C 54.0 °F /  12.2 °C 30.36in /  1028hPa Calm     84% 0.01in /  0.25mm 12.0 W/m2
06:33 58.6 °F /  14.8 °C 54.1 °F /  12.3 °C 30.36in /  1028hPa Calm     85% 0.00in /  0mm 19.0 W/m2
06:39 58.6 °F /  14.8 °C 54.1 °F /  12.3 °C 30.36in /  1028hPa Calm   1.0mph /  1.6km/h 85% 0.00in /  0mm 33.0 W/m2
06:45 58.6 °F /  14.8 °C 54.5 °F /  12.5 °C 30.36in /  1028hPa Calm   1.0mph /  1.6km/h 86% 0.00in /  0mm 44.0 W/m2
06:52 58.8 °F /  14.9 °C 54.7 °F /  12.6 °C 30.36in /  1028hPa Calm     86% 0.00in /  0mm 54.0 W/m2
06:58 59.2 °F /  15.1 °C 55.0 °F /  12.8 °C 30.37in /  1028.3hPa Calm     86% 0.00in /  0mm 72.0 W/m2
07:04 59.5 °F /  15.3 °C 55.4 °F /  13 °C 30.37in /  1028.3hPa Calm     86% 0.00in /  0mm 76.0 W/m2
07:16 60.3 °F /  15.7 °C 56.1 °F /  13.4 °C 30.37in /  1028.3hPa Calm     86% 0.00in /  0mm 81.0 W/m2
07:22 60.6 °F /  15.9 °C 56.5 °F /  13.6 °C 30.38in /  1028.7hPa Calm     86% 0.00in /  0mm 97.0 W/m2
07:28 61.2 °F /  16.2 °C 56.7 °F /  13.7 °C 30.38in /  1028.7hPa Calm     85% 0.00in /  0mm 121.0 W/m2
07:35 61.7 °F /  16.5 °C 57.2 °F /  14 °C 30.38in /  1028.7hPa Calm     85% 0.00in /  0mm 132.0 W/m2
07:41 62.4 °F /  16.9 °C 57.6 °F /  14.2 °C 30.38in /  1028.7hPa ENE 2.0mph /  3.2km/h 2.0mph /  3.2km/h 84% 0.00in /  0mm 128.0 W/m2
07:47 63.1 °F /  17.3 °C 57.6 °F /  14.2 °C 30.38in /  1028.7hPa ENE 0.9mph /  1.4km/h 2.0mph /  3.2km/h 82% 0.00in /  0mm 76.0 W/m2
07:53 64.0 °F /  17.8 °C 57.4 °F /  14.1 °C 30.38in /  1028.7hPa ENE 0.9mph /  1.4km/h 4.0mph /  6.4km/h 79% 0.00in /  0mm 65.0 W/m2
07:59 64.8 °F /  18.2 °C 57.4 °F /  14.1 °C 30.38in /  1028.7hPa Calm   1.0mph /  1.6km/h 77% 0.00in /  0mm 72.0 W/m2
08:05 65.3 °F /  18.5 °C 57.9 °F /  14.4 °C 30.38in /  1028.7hPa Calm   1.0mph /  1.6km/h 77% 0.00in /  0mm 83.0 W/m2
08:11 65.8 °F /  18.8 °C 58.1 °F /  14.5 °C 30.38in /  1028.7hPa Calm   2.0mph /  3.2km/h 76% 0.00in /  0mm 70.0 W/m2
08:17 66.6 °F /  19.2 °C 58.1 °F /  14.5 °C 30.38in /  1028.7hPa Calm   1.0mph /  1.6km/h 74% 0.00in /  0mm 72.0 W/m2
08:23 66.9 °F /  19.4 °C 57.9 °F /  14.4 °C 30.38in /  1028.7hPa Calm     73% 0.00in /  0mm 76.0 W/m2
08:29 67.5 °F /  19.7 °C 58.1 °F /  14.5 °C 30.38in /  1028.7hPa Calm   4.0mph /  6.4km/h 72% 0.00in /  0mm 69.0 W/m2
08:35 68.2 °F /  20.1 °C 58.5 °F /  14.7 °C 30.38in /  1028.7hPa Calm   4.0mph /  6.4km/h 71% 0.00in /  0mm 74.0 W/m2
08:42 69.3 °F /  20.7 °C 58.3 °F /  14.6 °C 30.39in /  1029hPa NW 4.9mph /  7.9km/h 8.0mph /  12.9km/h 68% 0.00in /  0mm 591.0 W/m2
08:48 70.5 °F /  21.4 °C 59.0 °F /  15 °C 30.39in /  1029hPa West 0.9mph /  1.4km/h 4.0mph /  6.4km/h 67% 0.00in /  0mm 691.0 W/m2
08:54 71.8 °F /  22.1 °C 59.0 °F /  15 °C 30.39in /  1029hPa Calm   7.0mph /  11.3km/h 64% 0.00in /  0mm 287.0 W/m2
09:00 72.0 °F /  22.2 °C 59.5 °F /  15.3 °C 30.39in /  1029hPa NNW 0.9mph /  1.4km/h 5.0mph /  8km/h 65% 0.00in /  0mm 285.0 W/m2
09:06 71.8 °F /  22.1 °C 59.4 °F /  15.2 °C 30.39in /  1029hPa North 2.0mph /  3.2km/h 10.0mph /  16.1km/h 65% 0.00in /  0mm 251.0 W/m2
09:12 71.6 °F /  22 °C 59.2 °F /  15.1 °C 30.39in /  1029hPa NW 2.9mph /  4.7km/h 8.0mph /  12.9km/h 65% 0.00in /  0mm 237.0 W/m2
09:18 71.2 °F /  21.8 °C 59.4 °F /  15.2 °C 30.39in /  1029hPa NW 4.0mph /  6.4km/h 4.0mph /  6.4km/h 66% 0.00in /  0mm 230.0 W/m2
09:24 71.1 °F /  21.7 °C 59.2 °F /  15.1 °C 30.39in /  1029hPa NW 4.9mph /  7.9km/h 5.0mph /  8km/h 66% 0.00in /  0mm 227.0 W/m2
09:31 71.1 °F /  21.7 °C 59.2 °F /  15.1 °C 30.39in /  1029hPa SE 0.9mph /  1.4km/h 9.0mph /  14.5km/h 66% 0.00in /  0mm 218.0 W/m2
09:43 71.1 °F /  21.7 °C 59.5 °F /  15.3 °C 30.40in /  1029.3hPa NNW 2.0mph /  3.2km/h 5.0mph /  8km/h 67% 0.00in /  0mm 251.0 W/m2
09:49 71.1 °F /  21.7 °C 59.5 °F /  15.3 °C 30.40in /  1029.3hPa NNW 2.0mph /  3.2km/h 4.0mph /  6.4km/h 67% 0.00in /  0mm 297.0 W/m2
09:55 71.2 °F /  21.8 °C 60.1 °F /  15.6 °C 30.39in /  1029hPa Calm   4.0mph /  6.4km/h 68% 0.00in /  0mm 332.0 W/m2
10:01 71.4 °F /  21.9 °C 59.9 °F /  15.5 °C 30.39in /  1029hPa North 2.0mph /  3.2km/h 6.0mph /  9.7km/h 67% 0.00in /  0mm 396.0 W/m2
10:07 71.8 °F /  22.1 °C 60.3 °F /  15.7 °C 30.39in /  1029hPa WNW 2.0mph /  3.2km/h 3.0mph /  4.8km/h 67% 0.00in /  0mm 362.0 W/m2
10:13 72.0 °F /  22.2 °C 59.9 °F /  15.5 °C 30.39in /  1029hPa Calm   5.0mph /  8km/h 66% 0.00in /  0mm 306.0 W/m2
10:20 72.1 °F /  22.3 °C 60.6 °F /  15.9 °C 30.39in /  1029hPa Calm   1.0mph /  1.6km/h 67% 0.00in /  0mm 276.0 W/m2
10:26 72.3 °F /  22.4 °C 59.9 °F /  15.5 °C 30.39in /  1029hPa NNW 2.0mph /  3.2km/h 5.0mph /  8km/h 65% 0.00in /  0mm 279.0 W/m2
10:32 72.3 °F /  22.4 °C 59.5 °F /  15.3 °C 30.39in /  1029hPa Calm   2.0mph /  3.2km/h 64% 0.00in /  0mm 318.0 W/m2
10:38 72.7 °F /  22.6 °C 60.3 °F /  15.7 °C 30.38in /  1028.7hPa Calm   6.0mph /  9.7km/h 65% 0.00in /  0mm 346.0 W/m2
10:44 72.7 °F /  22.6 °C 59.4 °F /  15.2 °C 30.38in /  1028.7hPa NW 0.9mph /  1.4km/h 3.0mph /  4.8km/h 63% 0.00in /  0mm 345.0 W/m2
10:50 72.9 °F /  22.7 °C 58.6 °F /  14.8 °C 30.38in /  1028.7hPa NNW 2.0mph /  3.2km/h 4.0mph /  6.4km/h 61% 0.00in /  0mm 348.0 W/m2
10:56 73.0 °F /  22.8 °C 59.7 °F /  15.4 °C 30.37in /  1028.3hPa North 2.0mph /  3.2km/h 4.0mph /  6.4km/h 63% 0.00in /  0mm 610.0 W/m2
11:02 74.3 °F /  23.5 °C 59.5 °F /  15.3 °C 30.37in /  1028.3hPa NNW 2.0mph /  3.2km/h 5.0mph /  8km/h 60% 0.00in /  0mm 1141.0 W/m2
11:09 75.0 °F /  23.9 °C 59.7 °F /  15.4 °C 30.37in /  1028.3hPa NNW 6.0mph /  9.7km/h 6.0mph /  9.7km/h 59% 0.00in /  0mm 459.0 W/m2
11:15 76.3 °F /  24.6 °C 59.4 °F /  15.2 °C 30.36in /  1028hPa NNW 6.0mph /  9.7km/h 7.0mph /  11.3km/h 56% 0.00in /  0mm 1121.0 W/m2
11:21 77.0 °F /  25 °C 59.5 °F /  15.3 °C 30.36in /  1028hPa NNW 6.0mph /  9.7km/h 8.0mph /  12.9km/h 55% 0.00in /  0mm 418.0 W/m2
11:33 76.8 °F /  24.9 °C 58.5 °F /  14.7 °C 30.36in /  1028hPa NNW 4.0mph /  6.4km/h 9.0mph /  14.5km/h 53% 0.00in /  0mm 362.0 W/m2
11:39 76.3 °F /  24.6 °C 59.0 °F /  15 °C 30.35in /  1027.7hPa NNE 6.0mph /  9.7km/h 8.0mph /  12.9km/h 55% 0.00in /  0mm 427.0 W/m2
11:45 76.3 °F /  24.6 °C 59.4 °F /  15.2 °C 30.34in /  1027.3hPa ENE 6.0mph /  9.7km/h 6.0mph /  9.7km/h 56% 0.00in /  0mm 490.0 W/m2
11:52 76.8 °F /  24.9 °C 59.0 °F /  15 °C 30.34in /  1027.3hPa NNE 0.9mph /  1.4km/h 6.0mph /  9.7km/h 54% 0.00in /  0mm 323.0 W/m2
11:58 77.7 °F /  25.4 °C 59.2 °F /  15.1 °C 30.34in /  1027.3hPa NNW 4.0mph /  6.4km/h 7.0mph /  11.3km/h 53% 0.00in /  0mm 1086.0 W/m2
12:04 78.3 °F /  25.7 °C 58.1 °F /  14.5 °C 30.33in /  1027hPa Calm   2.0mph /  3.2km/h 50% 0.00in /  0mm 257.0 W/m2
12:10 78.1 °F /  25.6 °C 59.0 °F /  15 °C 30.32in /  1026.6hPa Calm   3.0mph /  4.8km/h 52% 0.00in /  0mm 320.0 W/m2
12:16 78.3 °F /  25.7 °C 57.6 °F /  14.2 °C 30.32in /  1026.6hPa NNW 4.0mph /  6.4km/h 13.0mph /  20.9km/h 49% 0.00in /  0mm 1121.0 W/m2
12:28 78.4 °F /  25.8 °C 57.2 °F /  14 °C 30.31in /  1026.3hPa North 2.0mph /  3.2km/h 9.0mph /  14.5km/h 48% 0.00in /  0mm 953.0 W/m2
12:34 79.0 °F /  26.1 °C 57.0 °F /  13.9 °C 30.31in /  1026.3hPa NNW 4.0mph /  6.4km/h 8.0mph /  12.9km/h 47% 0.00in /  0mm 986.0 W/m2
12:40 78.4 °F /  25.8 °C 58.3 °F /  14.6 °C 30.30in /  1026hPa Calm   6.0mph /  9.7km/h 50% 0.00in /  0mm 309.0 W/m2
12:47 78.3 °F /  25.7 °C 57.0 °F /  13.9 °C 30.30in /  1026hPa NW 6.9mph /  11.1km/h 7.0mph /  11.3km/h 48% 0.00in /  0mm 385.0 W/m2
12:53 78.3 °F /  25.7 °C 58.6 °F /  14.8 °C 30.29in /  1025.6hPa Calm   1.0mph /  1.6km/h 51% 0.00in /  0mm 318.0 W/m2
12:59 78.1 °F /  25.6 °C 57.4 °F /  14.1 °C 30.29in /  1025.6hPa Calm   5.0mph /  8km/h 49% 0.00in /  0mm 431.0 W/m2
13:05 78.3 °F /  25.7 °C 57.6 °F /  14.2 °C 30.29in /  1025.6hPa SSE 2.0mph /  3.2km/h 5.0mph /  8km/h 49% 0.00in /  0mm 889.0 W/m2
13:11 78.3 °F /  25.7 °C 58.1 °F /  14.5 °C 30.29in /  1025.6hPa East 4.9mph /  7.9km/h 8.0mph /  12.9km/h 50% 0.00in /  0mm 332.0 W/m2
13:17 77.4 °F /  25.2 °C 57.2 °F /  14 °C 30.29in /  1025.6hPa SE 2.9mph /  4.7km/h 6.0mph /  9.7km/h 50% 0.00in /  0mm 167.0 W/m2
13:23 76.5 °F /  24.7 °C 57.0 °F /  13.9 °C 30.29in /  1025.6hPa ENE 0.9mph /  1.4km/h 3.0mph /  4.8km/h 51% 0.00in /  0mm 134.0 W/m2
13:30 75.9 °F /  24.4 °C 57.0 °F /  13.9 °C 30.29in /  1025.6hPa ESE 6.0mph /  9.7km/h 6.0mph /  9.7km/h 52% 0.00in /  0mm 163.0 W/m2
13:36 75.4 °F /  24.1 °C 57.6 °F /  14.2 °C 30.29in /  1025.6hPa South 0.9mph /  1.4km/h 6.0mph /  9.7km/h 54% 0.00in /  0mm 972.0 W/m2
13:42 75.2 °F /  24 °C 58.5 °F /  14.7 °C 30.29in /  1025.6hPa ESE 8.9mph /  14.3km/h 13.0mph /  20.9km/h 56% 0.00in /  0mm 388.0 W/m2
13:48 73.8 °F /  23.2 °C 55.0 °F /  12.8 °C 30.29in /  1025.6hPa SE 4.9mph /  7.9km/h 10.0mph /  16.1km/h 52% 0.00in /  0mm 330.0 W/m2
13:54 73.2 °F /  22.9 °C 56.1 °F /  13.4 °C 30.29in /  1025.6hPa SE 6.0mph /  9.7km/h 8.0mph /  12.9km/h 55% 0.00in /  0mm 844.0 W/m2
14:06 73.0 °F /  22.8 °C 56.5 °F /  13.6 °C 30.29in /  1025.6hPa Calm   6.0mph /  9.7km/h 56% 0.00in /  0mm 207.0 W/m2
14:12 72.7 °F /  22.6 °C 56.5 °F /  13.6 °C 30.28in /  1025.3hPa Calm   3.0mph /  4.8km/h 57% 0.00in /  0mm 211.0 W/m2
14:25 73.0 °F /  22.8 °C 57.4 °F /  14.1 °C 30.28in /  1025.3hPa SSE 0.9mph /  1.4km/h 3.0mph /  4.8km/h 58% 0.00in /  0mm 160.0 W/m2
14:31 73.0 °F /  22.8 °C 57.9 °F /  14.4 °C 30.28in /  1025.3hPa SSE 2.9mph /  4.7km/h 5.0mph /  8km/h 59% 0.00in /  0mm 139.0 W/m2
14:37 73.0 °F /  22.8 °C 57.4 °F /  14.1 °C 30.29in /  1025.6hPa ENE 0.9mph /  1.4km/h 5.0mph /  8km/h 58% 0.00in /  0mm 125.0 W/m2
14:43 73.2 °F /  22.9 °C 57.0 °F /  13.9 °C 30.28in /  1025.3hPa Calm   5.0mph /  8km/h 57% 0.00in /  0mm 98.0 W/m2
14:49 73.2 °F /  22.9 °C 57.0 °F /  13.9 °C 30.27in /  1024.9hPa Calm   2.0mph /  3.2km/h 57% 0.00in /  0mm 67.0 W/m2
14:55 73.2 °F /  22.9 °C 58.5 °F /  14.7 °C 30.29in /  1025.6hPa NE 4.0mph /  6.4km/h 9.0mph /  14.5km/h 60% 0.00in /  0mm 21.0 W/m2
15:01 72.0 °F /  22.2 °C 58.3 °F /  14.6 °C 30.29in /  1025.6hPa NNE 2.9mph /  4.7km/h 10.0mph /  16.1km/h 62% 0.00in /  0mm 19.0 W/m2
15:07 69.4 °F /  20.8 °C 55.9 °F /  13.3 °C 30.28in /  1025.3hPa NNE 6.0mph /  9.7km/h 14.0mph /  22.5km/h 62% 0.01in /  0.25mm 18.0 W/m2
15:14 67.3 °F /  19.6 °C 56.8 °F /  13.8 °C 30.29in /  1025.6hPa NNE 4.9mph /  7.9km/h 8.0mph /  12.9km/h 69% 0.01in /  0.25mm 16.0 W/m2
15:20 65.5 °F /  18.6 °C 57.7 °F /  14.3 °C 30.29in /  1025.6hPa Calm   4.0mph /  6.4km/h 76% 0.06in /  1.52mm 16.0 W/m2
15:26 64.2 °F /  17.9 °C 58.3 °F /  14.6 °C 30.29in /  1025.6hPa Calm     81% 0.13in /  3.3mm 18.0 W/m2
15:32 63.5 °F /  17.5 °C 58.8 °F /  14.9 °C 30.30in /  1026hPa Calm     85% 0.13in /  3.3mm 23.0 W/m2
15:38 63.1 °F /  17.3 °C 58.8 °F /  14.9 °C 30.31in /  1026.3hPa Calm     86% 0.13in /  3.3mm 26.0 W/m2
15:44 62.8 °F /  17.1 °C 58.8 °F /  14.9 °C 30.31in /  1026.3hPa Calm   4.0mph /  6.4km/h 87% 0.13in /  3.3mm 25.0 W/m2
15:50 62.8 °F /  17.1 °C 58.8 °F /  14.9 °C 30.31in /  1026.3hPa Calm   1.0mph /  1.6km/h 87% 0.13in /  3.3mm 25.0 W/m2
15:57 62.4 °F /  16.9 °C 59.2 °F /  15.1 °C 30.31in /  1026.3hPa Calm   1.0mph /  1.6km/h 89% 0.13in /  3.3mm 23.0 W/m2
16:03 62.4 °F /  16.9 °C 59.2 °F /  15.1 °C 30.32in /  1026.6hPa Calm     89% 0.13in /  3.3mm 21.0 W/m2
16:15 62.4 °F /  16.9 °C 59.7 °F /  15.4 °C 30.32in /  1026.6hPa Calm     91% 0.12in /  3.05mm 16.0 W/m2
16:21 62.6 °F /  17 °C 59.9 °F /  15.5 °C 30.33in /  1027hPa Calm     91% 0.07in /  1.78mm 18.0 W/m2
16:27 62.6 °F /  17 °C 59.9 °F /  15.5 °C 30.34in /  1027.3hPa Calm     91% 0.03in /  0.76mm 21.0 W/m2
16:33 62.8 °F /  17.1 °C 60.1 °F /  15.6 °C 30.34in /  1027.3hPa Calm     91% 0.03in /  0.76mm 28.0 W/m2
16:45 62.4 °F /  16.9 °C 59.7 °F /  15.4 °C 30.34in /  1027.3hPa Calm   1.0mph /  1.6km/h 91% 0.02in /  0.51mm 25.0 W/m2
16:51 62.4 °F /  16.9 °C 59.7 °F /  15.4 °C 30.35in /  1027.7hPa NW 0.9mph /  1.4km/h 1.0mph /  1.6km/h 91% 0.03in /  0.76mm 21.0 W/m2
16:57 62.1 °F /  16.7 °C 59.2 °F /  15.1 °C 30.35in /  1027.7hPa SW 2.0mph /  3.2km/h 3.0mph /  4.8km/h 90% 0.03in /  0.76mm 16.0 W/m2
17:04 61.3 °F /  16.3 °C 58.5 °F /  14.7 °C 30.35in /  1027.7hPa Calm   1.0mph /  1.6km/h 90% 0.03in /  0.76mm 14.0 W/m2
17:10 61.0 °F /  16.1 °C 58.1 °F /  14.5 °C 30.35in /  1027.7hPa Calm   1.0mph /  1.6km/h 90% 0.03in /  0.76mm 14.0 W/m2
17:16 60.6 °F /  15.9 °C 57.7 °F /  14.3 °C 30.34in /  1027.3hPa Calm   3.0mph /  4.8km/h 90% 0.04in /  1.02mm 14.0 W/m2
17:22 60.3 °F /  15.7 °C 57.4 °F /  14.1 °C 30.34in /  1027.3hPa Calm   3.0mph /  4.8km/h 90% 0.05in /  1.27mm 7.0 W/m2
17:28 59.9 °F /  15.5 °C 57.2 °F /  14 °C 30.33in /  1027hPa Calm     91% 0.06in /  1.52mm 11.0 W/m2
17:35 59.7 °F /  15.4 °C 57.0 °F /  13.9 °C 30.33in /  1027hPa Calm     91% 0.06in /  1.52mm 7.0 W/m2
17:40 59.5 °F /  15.3 °C 56.8 °F /  13.8 °C 30.33in /  1027hPa Calm   1.0mph /  1.6km/h 91% 0.06in /  1.52mm 0.0 W/m2
17:47 59.5 °F /  15.3 °C 57.2 °F /  14 °C 30.34in /  1027.3hPa Calm   1.0mph /  1.6km/h 92% 0.06in /  1.52mm 0.0 W/m2
17:53 59.5 °F /  15.3 °C 57.2 °F /  14 °C 30.34in /  1027.3hPa Calm   2.0mph /  3.2km/h 92% 0.06in /  1.52mm 0.0 W/m2
17:59 59.5 °F /  15.3 °C 57.2 °F /  14 °C 30.34in /  1027.3hPa Calm     92% 0.05in /  1.27mm 0.0 W/m2
18:05 59.5 °F /  15.3 °C 57.6 °F /  14.2 °C 30.34in /  1027.3hPa West 2.9mph /  4.7km/h 3.0mph /  4.8km/h 93% 0.05in /  1.27mm 0.0 W/m2
18:11 59.5 °F /  15.3 °C 57.6 °F /  14.2 °C 30.34in /  1027.3hPa Calm   1.0mph /  1.6km/h 93% 0.04in /  1.02mm 0.0 W/m2
18:17 59.5 °F /  15.3 °C 57.6 °F /  14.2 °C 30.35in /  1027.7hPa Calm     93% 0.02in /  0.51mm 0.0 W/m2
18:23 59.5 °F /  15.3 °C 57.6 °F /  14.2 °C 30.35in /  1027.7hPa Calm   1.0mph /  1.6km/h 93% 0.00in /  0mm 0.0 W/m2
18:30 59.5 °F /  15.3 °C 57.6 °F /  14.2 °C 30.35in /  1027.7hPa Calm   1.0mph /  1.6km/h 93% 0.00in /  0mm 0.0 W/m2
18:36 59.5 °F /  15.3 °C 57.6 °F /  14.2 °C 30.35in /  1027.7hPa Calm     93% 0.00in /  0mm 0.0 W/m2
18:42 59.5 °F /  15.3 °C 57.6 °F /  14.2 °C 30.35in /  1027.7hPa Calm     93% 0.00in /  0mm 0.0 W/m2
18:48 59.5 °F /  15.3 °C 57.6 °F /  14.2 °C 30.36in /  1028hPa Calm     93% 0.00in /  0mm 0.0 W/m2
18:54 59.5 °F /  15.3 °C 57.6 °F /  14.2 °C 30.36in /  1028hPa Calm     93% 0.00in /  0mm 0.0 W/m2
19:00 59.5 °F /  15.3 °C 57.6 °F /  14.2 °C 30.35in /  1027.7hPa Calm     93% 0.00in /  0mm 0.0 W/m2
19:06 59.7 °F /  15.4 °C 57.7 °F /  14.3 °C 30.35in /  1027.7hPa South 0.9mph /  1.4km/h 2.0mph /  3.2km/h 93% 0.01in /  0.25mm 0.0 W/m2
19:12 59.7 °F /  15.4 °C 57.7 °F /  14.3 °C 30.35in /  1027.7hPa Calm   1.0mph /  1.6km/h 93% 0.02in /  0.51mm 0.0 W/m2
19:18 59.7 °F /  15.4 °C 57.7 °F /  14.3 °C 30.36in /  1028hPa South 0.9mph /  1.4km/h 2.0mph /  3.2km/h 93% 0.02in /  0.51mm 0.0 W/m2
19:25 59.5 °F /  15.3 °C 57.6 °F /  14.2 °C 30.36in /  1028hPa SE 6.0mph /  9.7km/h 7.0mph /  11.3km/h 93% 0.02in /  0.51mm 0.0 W/m2
19:31 59.5 °F /  15.3 °C 57.6 °F /  14.2 °C 30.36in /  1028hPa SSE 2.0mph /  3.2km/h 5.0mph /  8km/h 93% 0.02in /  0.51mm 0.0 W/m2
19:37 59.5 °F /  15.3 °C 57.6 °F /  14.2 °C 30.37in /  1028.3hPa Calm   3.0mph /  4.8km/h 93% 0.02in /  0.51mm 0.0 W/m2
19:43 59.5 °F /  15.3 °C 57.6 °F /  14.2 °C 30.37in /  1028.3hPa Calm   3.0mph /  4.8km/h 93% 0.02in /  0.51mm 0.0 W/m2
19:49 59.5 °F /  15.3 °C 57.6 °F /  14.2 °C 30.37in /  1028.3hPa Calm   3.0mph /  4.8km/h 93% 0.02in /  0.51mm 0.0 W/m2
19:55 59.7 °F /  15.4 °C 57.7 °F /  14.3 °C 30.37in /  1028.3hPa Calm   6.0mph /  9.7km/h 93% 0.02in /  0.51mm 0.0 W/m2
20:01 59.7 °F /  15.4 °C 57.4 °F /  14.1 °C 30.38in /  1028.7hPa Calm   2.0mph /  3.2km/h 92% 0.02in /  0.51mm 0.0 W/m2
20:08 59.7 °F /  15.4 °C 57.4 °F /  14.1 °C 30.39in /  1029hPa SSE 0.9mph /  1.4km/h 4.0mph /  6.4km/h 92% 0.01in /  0.25mm 0.0 W/m2
20:14 59.7 °F /  15.4 °C 57.0 °F /  13.9 °C 30.39in /  1029hPa Calm   3.0mph /  4.8km/h 91% 0.01in /  0.25mm 0.0 W/m2
20:20 59.7 °F /  15.4 °C 57.0 °F /  13.9 °C 30.39in /  1029hPa Calm   3.0mph /  4.8km/h 91% 0.01in /  0.25mm 0.0 W/m2
20:26 59.9 °F /  15.5 °C 57.2 °F /  14 °C 30.39in /  1029hPa SE 0.9mph /  1.4km/h 2.0mph /  3.2km/h 91% 0.00in /  0mm 0.0 W/m2
20:32 59.7 °F /  15.4 °C 57.0 °F /  13.9 °C 30.39in /  1029hPa SSE 0.9mph /  1.4km/h 4.0mph /  6.4km/h 91% 0.00in /  0mm 0.0 W/m2
20:38 59.7 °F /  15.4 °C 56.8 °F /  13.8 °C 30.39in /  1029hPa SSE 4.0mph /  6.4km/h 7.0mph /  11.3km/h 90% 0.00in /  0mm 0.0 W/m2
20:44 59.7 °F /  15.4 °C 56.8 °F /  13.8 °C 30.40in /  1029.3hPa SE 2.9mph /  4.7km/h 5.0mph /  8km/h 90% 0.00in /  0mm 0.0 W/m2
20:50 59.9 °F /  15.5 °C 57.2 °F /  14 °C 30.40in /  1029.3hPa Calm   1.0mph /  1.6km/h 91% 0.00in /  0mm 0.0 W/m2
20:56 59.7 °F /  15.4 °C 57.0 °F /  13.9 °C 30.40in /  1029.3hPa East 2.0mph /  3.2km/h 2.0mph /  3.2km/h 91% 0.01in /  0.25mm 0.0 W/m2
21:03 59.7 °F /  15.4 °C 57.0 °F /  13.9 °C 30.40in /  1029.3hPa Calm   1.0mph /  1.6km/h 91% 0.01in /  0.25mm 0.0 W/m2
21:09 59.7 °F /  15.4 °C 57.4 °F /  14.1 °C 30.40in /  1029.3hPa East 0.9mph /  1.4km/h 1.0mph /  1.6km/h 92% 0.01in /  0.25mm 0.0 W/m2
21:15 59.5 °F /  15.3 °C 57.2 °F /  14 °C 30.40in /  1029.3hPa Calm   2.0mph /  3.2km/h 92% 0.01in /  0.25mm 0.0 W/m2
21:21 59.5 °F /  15.3 °C 57.2 °F /  14 °C 30.40in /  1029.3hPa Calm     92% 0.01in /  0.25mm 0.0 W/m2
21:27 59.5 °F /  15.3 °C 57.6 °F /  14.2 °C 30.40in /  1029.3hPa Calm     93% 0.01in /  0.25mm 0.0 W/m2
21:33 59.5 °F /  15.3 °C 57.6 °F /  14.2 °C 30.39in /  1029hPa Calm   1.0mph /  1.6km/h 93% 0.01in /  0.25mm 0.0 W/m2
21:39 59.5 °F /  15.3 °C 57.6 °F /  14.2 °C 30.39in /  1029hPa Calm     93% 0.01in /  0.25mm 0.0 W/m2
21:46 59.4 °F /  15.2 °C 57.4 °F /  14.1 °C 30.39in /  1029hPa Calm     93% 0.01in /  0.25mm 0.0 W/m2
21:52 59.4 °F /  15.2 °C 57.4 °F /  14.1 °C 30.39in /  1029hPa Calm     93% 0.01in /  0.25mm 0.0 W/m2
21:58 59.4 °F /  15.2 °C 57.4 °F /  14.1 °C 30.39in /  1029hPa Calm     93% 0.00in /  0mm 0.0 W/m2
22:04 59.4 °F /  15.2 °C 57.4 °F /  14.1 °C 30.39in /  1029hPa Calm   1.0mph /  1.6km/h 93% 0.00in /  0mm 0.0 W/m2
22:10 59.4 °F /  15.2 °C 57.4 °F /  14.1 °C 30.38in /  1028.7hPa Calm     93% 0.00in /  0mm 0.0 W/m2
22:16 59.4 °F /  15.2 °C 57.4 °F /  14.1 °C 30.38in /  1028.7hPa Calm   1.0mph /  1.6km/h 93% 0.00in /  0mm 0.0 W/m2
22:22 59.2 °F /  15.1 °C 57.2 °F /  14 °C 30.38in /  1028.7hPa Calm     93% 0.00in /  0mm 0.0 W/m2
22:28 59.2 °F /  15.1 °C 57.2 °F /  14 °C 30.37in /  1028.3hPa Calm     93% 0.00in /  0mm 0.0 W/m2
22:35 59.2 °F /  15.1 °C 57.4 °F /  14.1 °C 30.37in /  1028.3hPa Calm     94% 0.00in /  0mm 0.0 W/m2
22:41 59.2 °F /  15.1 °C 57.4 °F /  14.1 °C 30.37in /  1028.3hPa SE 2.0mph /  3.2km/h 2.0mph /  3.2km/h 94% 0.00in /  0mm 0.0 W/m2
22:47 59.2 °F /  15.1 °C 57.4 °F /  14.1 °C 30.36in /  1028hPa SE 0.9mph /  1.4km/h 3.0mph /  4.8km/h 94% 0.00in /  0mm 0.0 W/m2
22:53 59.2 °F /  15.1 °C 57.4 °F /  14.1 °C 30.36in /  1028hPa Calm   2.0mph /  3.2km/h 94% 0.00in /  0mm 0.0 W/m2
22:59 59.2 °F /  15.1 °C 57.2 °F /  14 °C 30.36in /  1028hPa Calm   4.0mph /  6.4km/h 93% 0.00in /  0mm 0.0 W/m2
23:05 59.4 °F /  15.2 °C 57.4 °F /  14.1 °C 30.36in /  1028hPa Calm     93% 0.00in /  0mm 0.0 W/m2
23:11 59.2 °F /  15.1 °C 57.2 °F /  14 °C 30.36in /  1028hPa Calm     93% 0.00in /  0mm 0.0 W/m2
23:17 59.2 °F /  15.1 °C 57.2 °F /  14 °C 30.36in /  1028hPa Calm     93% 0.00in /  0mm 0.0 W/m2
23:23 59.2 °F /  15.1 °C 57.2 °F /  14 °C 30.36in /  1028hPa Calm   1.0mph /  1.6km/h 93% 0.00in /  0mm 0.0 W/m2
23:29 59.4 °F /  15.2 °C 57.6 °F /  14.2 °C 30.36in /  1028hPa Calm     94% 0.00in /  0mm 0.0 W/m2
23:36 59.4 °F /  15.2 °C 57.6 °F /  14.2 °C 30.36in /  1028hPa Calm     94% 0.00in /  0mm 0.0 W/m2
23:42 59.4 °F /  15.2 °C 57.6 °F /  14.2 °C 30.36in /  1028hPa Calm   2.0mph /  3.2km/h 94% 0.00in /  0mm 0.0 W/m2
23:48 59.4 °F /  15.2 °C 57.6 °F /  14.2 °C 30.36in /  1028hPa Calm   3.0mph /  4.8km/h 94% 0.00in /  0mm 0.0 W/m2
23:54 59.4 °F /  15.2 °C 57.6 °F /  14.2 °C 30.35in /  1027.7hPa East 0.9mph /  1.4km/h 1.0mph /  1.6km/h 94% 0.00in /  0mm 0.0 W/m2
Olympia, Windhoek, Namibia
Compliments of Weather Underground - 3 mb